This is the latest recevied weather packets stored in our database for station/object EA6AMI-5. If no packets are shown the sender has not sent any weather packets the latest 10 day(s).
| Time | Temp. | Humidity | Pressure | Rain* | Wind** | Luminosity | Snow |
|---|---|---|---|---|---|---|---|
| 1777997883 | 19.44° C | 72% | 1010.6 hPa | 0 mm | - | 257 W/m² | - |
| 1777997344 | 18.89° C | 73% | 1010.7 hPa | 0 mm | - | 181 W/m² | - |
| 1777996803 | 18.89° C | 74% | 1010.6 hPa | 0 mm | - | 181 W/m² | - |
| 1777996443 | 18.89° C | 74% | 1010.7 hPa | 0 mm | - | 140 W/m² | - |
| 1777995904 | 18.89° C | 74% | 1010.7 hPa | 0 mm | - | 161 W/m² | - |
| 1777995364 | 18.89° C | 74% | 1010.7 hPa | 0 mm | - | 138 W/m² | - |
| 1777994823 | 18.89° C | 74% | 1010.9 hPa | 0 mm | - | 256 W/m² | - |
| 1777994283 | 18.89° C | 74% | 1011 hPa | 0 mm | - | 158 W/m² | - |
| 1777993743 | 18.89° C | 75% | 1010.8 hPa | 0 mm | - | 135 W/m² | - |
| 1777993203 | 19.44° C | 72% | 1011 hPa | 0 mm | - | 115 W/m² | - |
| 1777992843 | 18.89° C | 72% | 1010.7 hPa | 0 mm | - | 148 W/m² | - |
| 1777992303 | 19.44° C | 72% | 1010.7 hPa | 0 mm | - | 213 W/m² | - |
| 1777991763 | 19.44° C | 71% | 1010.9 hPa | 0 mm | - | 135 W/m² | - |
| 1777991223 | 19.44° C | 70% | 1010.9 hPa | 0 mm | - | 222 W/m² | - |
| 1777989603 | 20.56° C | 66% | 1010.8 hPa | 0 mm | - | 181 W/m² | - |
| 1777989243 | 20° C | 65% | 1010.8 hPa | 0 mm | - | 604 W/m² | - |
| 1777988703 | 20.56° C | 65% | 1011 hPa | 0 mm | - | 429 W/m² | - |
| 1777988163 | 20.56° C | 64% | 1011 hPa | 0 mm | - | 331 W/m² | - |
| 1777987623 | 20° C | 65% | 1011.3 hPa | 0 mm | - | 834 W/m² | - |
| 1777987083 | 20.56° C | 66% | 1011.3 hPa | 0 mm | - | 916 W/m² | - |
| 1777986544 | 20.56° C | 65% | 1011.3 hPa | 0 mm | - | 222 W/m² | - |
| 1777986003 | 21.11° C | 63% | 1011.3 hPa | 0 mm | - | 306 W/m² | - |
| 1777985643 | 21.11° C | 62% | 1011.4 hPa | 0 mm | - | 931 W/m² | - |
| 1777985104 | 20.56° C | 61% | 1011.4 hPa | 0 mm | - | 928 W/m² | - |
| 1777984563 | 21.11° C | 60% | 1011.6 hPa | 0 mm | - | 774 W/m² | - |
* Rain latest hour (hover to see other rain measurements)
** Current wind speed in m/s (hover to see current wind gust speed)